sensor_id;sensor_type;location;lat;lon;timestamp;P1;durP1;ratioP1;P2;durP2;ratioP2
13959;SDS011;7052;51.050;3.716;2022-12-07T00:00:05;14.20;;;6.63;;
13959;SDS011;7052;51.050;3.716;2022-12-07T00:02:56;7.30;;;5.93;;
13959;SDS011;7052;51.050;3.716;2022-12-07T00:05:31;7.63;;;5.07;;
13959;SDS011;7052;51.050;3.716;2022-12-07T00:08:19;6.90;;;4.93;;
13959;SDS011;7052;51.050;3.716;2022-12-07T00:11:01;6.43;;;4.90;;
13959;SDS011;7052;51.050;3.716;2022-12-07T00:13:39;7.37;;;4.90;;
13959;SDS011;7052;51.050;3.716;2022-12-07T00:19:13;7.73;;;4.07;;
13959;SDS011;7052;51.050;3.716;2022-12-07T00:22:13;4.23;;;3.80;;
13959;SDS011;7052;51.050;3.716;2022-12-07T00:24:59;6.97;;;4.10;;
13959;SDS011;7052;51.050;3.716;2022-12-07T00:27:42;6.47;;;4.07;;
13959;SDS011;7052;51.050;3.716;2022-12-07T00:30:27;7.13;;;4.27;;
13959;SDS011;7052;51.050;3.716;2022-12-07T00:36:27;5.97;;;3.90;;
13959;SDS011;7052;51.050;3.716;2022-12-07T00:38:57;4.57;;;3.50;;
13959;SDS011;7052;51.050;3.716;2022-12-07T00:41:27;4.50;;;2.83;;
13959;SDS011;7052;51.050;3.716;2022-12-07T00:44:03;4.83;;;3.30;;
13959;SDS011;7052;51.050;3.716;2022-12-07T00:46:42;6.80;;;3.27;;
13959;SDS011;7052;51.050;3.716;2022-12-07T00:49:25;4.63;;;3.20;;
13959;SDS011;7052;51.050;3.716;2022-12-07T00:51:52;5.20;;;3.43;;
13959;SDS011;7052;51.050;3.716;2022-12-07T00:54:22;5.67;;;3.17;;
13959;SDS011;7052;51.050;3.716;2022-12-07T00:59:33;4.43;;;2.97;;
13959;SDS011;7052;51.050;3.716;2022-12-07T01:02:02;4.73;;;3.13;;
13959;SDS011;7052;51.050;3.716;2022-12-07T01:04:35;7.37;;;2.93;;
13959;SDS011;7052;51.050;3.716;2022-12-07T01:07:03;5.00;;;3.27;;
13959;SDS011;7052;51.050;3.716;2022-12-07T01:09:47;5.53;;;3.30;;
13959;SDS011;7052;51.050;3.716;2022-12-07T01:12:15;5.87;;;3.50;;
13959;SDS011;7052;51.050;3.716;2022-12-07T01:17:19;5.93;;;3.47;;
13959;SDS011;7052;51.050;3.716;2022-12-07T01:19:57;4.67;;;4.10;;
13959;SDS011;7052;51.050;3.716;2022-12-07T01:22:25;5.07;;;4.03;;
13959;SDS011;7052;51.050;3.716;2022-12-07T01:24:53;5.10;;;3.83;;
13959;SDS011;7052;51.050;3.716;2022-12-07T01:27:21;6.40;;;4.03;;
13959;SDS011;7052;51.050;3.716;2022-12-07T01:30:02;8.53;;;4.10;;
13959;SDS011;7052;51.050;3.716;2022-12-07T01:32:32;7.00;;;3.90;;
13959;SDS011;7052;51.050;3.716;2022-12-07T01:35:06;6.93;;;4.50;;
13959;SDS011;7052;51.050;3.716;2022-12-07T01:37:47;7.00;;;4.63;;
13959;SDS011;7052;51.050;3.716;2022-12-07T01:40:33;8.87;;;4.70;;
13959;SDS011;7052;51.050;3.716;2022-12-07T01:43:36;6.13;;;4.53;;
13959;SDS011;7052;51.050;3.716;2022-12-07T01:46:52;7.80;;;5.30;;
13959;SDS011;7052;51.050;3.716;2022-12-07T02:08:27;9.97;;;5.10;;
13959;SDS011;7052;51.050;3.716;2022-12-07T02:11:12;8.10;;;5.60;;
13959;SDS011;7052;51.050;3.716;2022-12-07T02:14:11;10.77;;;5.50;;
13959;SDS011;7052;51.050;3.716;2022-12-07T02:16:45;9.00;;;5.30;;
13959;SDS011;7052;51.050;3.716;2022-12-07T02:22:30;11.27;;;5.63;;
13959;SDS011;7052;51.050;3.716;2022-12-07T02:28:34;7.67;;;5.97;;
13959;SDS011;7052;51.050;3.716;2022-12-07T02:31:17;6.87;;;5.80;;
13959;SDS011;7052;51.050;3.716;2022-12-07T02:34:00;6.33;;;5.07;;
13959;SDS011;7052;51.050;3.716;2022-12-07T02:36:39;9.20;;;6.33;;
13959;SDS011;7052;51.050;3.716;2022-12-07T02:39:28;7.23;;;5.93;;
13959;SDS011;7052;51.050;3.716;2022-12-07T02:42:15;8.23;;;5.80;;
13959;SDS011;7052;51.050;3.716;2022-12-07T02:45:14;7.27;;;5.80;;
13959;SDS011;7052;51.050;3.716;2022-12-07T02:47:55;11.20;;;6.63;;
13959;SDS011;7052;51.050;3.716;2022-12-07T02:53:31;7.77;;;6.03;;
13959;SDS011;7052;51.050;3.716;2022-12-07T02:56:06;18.47;;;10.07;;
13959;SDS011;7052;51.050;3.716;2022-12-07T02:58:58;6.43;;;5.43;;
13959;SDS011;7052;51.050;3.716;2022-12-07T03:02:17;9.77;;;5.10;;
13959;SDS011;7052;51.050;3.716;2022-12-07T03:08:21;8.63;;;5.20;;
13959;SDS011;7052;51.050;3.716;2022-12-07T03:11:25;7.20;;;5.17;;
13959;SDS011;7052;51.050;3.716;2022-12-07T03:14:15;7.83;;;4.70;;
13959;SDS011;7052;51.050;3.716;2022-12-07T03:17:14;9.87;;;4.90;;
13959;SDS011;7052;51.050;3.716;2022-12-07T03:19:56;8.67;;;4.23;;
13959;SDS011;7052;51.050;3.716;2022-12-07T03:22:29;8.47;;;4.70;;
13959;SDS011;7052;51.050;3.716;2022-12-07T03:31:18;6.20;;;4.13;;
13959;SDS011;7052;51.050;3.716;2022-12-07T03:33:59;5.57;;;4.17;;
13959;SDS011;7052;51.050;3.716;2022-12-07T03:36:52;9.20;;;4.10;;
13959;SDS011;7052;51.050;3.716;2022-12-07T03:39:30;6.57;;;3.80;;
13959;SDS011;7052;51.050;3.716;2022-12-07T03:42:09;4.53;;;3.63;;
13959;SDS011;7052;51.050;3.716;2022-12-07T03:44:57;6.33;;;4.20;;
13959;SDS011;7052;51.050;3.716;2022-12-07T03:47:27;7.13;;;3.80;;
13959;SDS011;7052;51.050;3.716;2022-12-07T03:50:04;6.00;;;3.40;;
13959;SDS011;7052;51.050;3.716;2022-12-07T03:53:02;6.57;;;3.60;;
13959;SDS011;7052;51.050;3.716;2022-12-07T03:55:59;6.93;;;3.70;;
13959;SDS011;7052;51.050;3.716;2022-12-07T03:58:58;6.07;;;3.60;;
13959;SDS011;7052;51.050;3.716;2022-12-07T04:01:52;7.40;;;3.57;;
13959;SDS011;7052;51.050;3.716;2022-12-07T04:04:41;3.87;;;2.73;;
13959;SDS011;7052;51.050;3.716;2022-12-07T04:07:33;4.37;;;3.53;;
13959;SDS011;7052;51.050;3.716;2022-12-07T04:10:04;4.73;;;2.83;;
13959;SDS011;7052;51.050;3.716;2022-12-07T04:12:45;6.27;;;3.20;;
13959;SDS011;7052;51.050;3.716;2022-12-07T04:16:09;6.93;;;3.40;;
13959;SDS011;7052;51.050;3.716;2022-12-07T04:18:39;5.90;;;3.40;;
13959;SDS011;7052;51.050;3.716;2022-12-07T04:21:05;6.83;;;3.40;;
13959;SDS011;7052;51.050;3.716;2022-12-07T04:23:35;5.87;;;3.33;;
13959;SDS011;7052;51.050;3.716;2022-12-07T04:26:05;4.97;;;3.40;;
13959;SDS011;7052;51.050;3.716;2022-12-07T04:28:33;9.37;;;3.50;;
13959;SDS011;7052;51.050;3.716;2022-12-07T04:31:01;5.07;;;3.07;;
13959;SDS011;7052;51.050;3.716;2022-12-07T04:33:33;7.30;;;3.30;;
13959;SDS011;7052;51.050;3.716;2022-12-07T04:36:01;4.27;;;2.97;;
13959;SDS011;7052;51.050;3.716;2022-12-07T04:38:28;4.87;;;3.20;;
13959;SDS011;7052;51.050;3.716;2022-12-07T04:40:57;7.90;;;3.33;;
13959;SDS011;7052;51.050;3.716;2022-12-07T04:43:31;7.40;;;2.90;;
13959;SDS011;7052;51.050;3.716;2022-12-07T04:46:18;4.83;;;2.80;;
13959;SDS011;7052;51.050;3.716;2022-12-07T04:51:40;3.63;;;2.93;;
13959;SDS011;7052;51.050;3.716;2022-12-07T04:54:11;4.60;;;3.27;;
13959;SDS011;7052;51.050;3.716;2022-12-07T04:57:06;5.23;;;2.80;;
13959;SDS011;7052;51.050;3.716;2022-12-07T04:59:36;4.67;;;2.60;;
13959;SDS011;7052;51.050;3.716;2022-12-07T05:02:03;6.93;;;3.20;;
13959;SDS011;7052;51.050;3.716;2022-12-07T05:04:37;4.80;;;2.83;;
13959;SDS011;7052;51.050;3.716;2022-12-07T05:07:04;5.47;;;2.77;;
13959;SDS011;7052;51.050;3.716;2022-12-07T05:09:37;4.10;;;2.93;;
13959;SDS011;7052;51.050;3.716;2022-12-07T05:12:16;5.53;;;2.80;;
13959;SDS011;7052;51.050;3.716;2022-12-07T05:14:47;4.87;;;2.53;;
13959;SDS011;7052;51.050;3.716;2022-12-07T05:17:14;7.03;;;2.97;;
13959;SDS011;7052;51.050;3.716;2022-12-07T05:19:43;5.27;;;2.80;;
13959;SDS011;7052;51.050;3.716;2022-12-07T05:22:10;5.23;;;2.70;;
13959;SDS011;7052;51.050;3.716;2022-12-07T05:24:38;3.63;;;2.90;;
13959;SDS011;7052;51.050;3.716;2022-12-07T05:27:06;6.80;;;3.00;;
13959;SDS011;7052;51.050;3.716;2022-12-07T05:29:33;5.87;;;3.00;;
13959;SDS011;7052;51.050;3.716;2022-12-07T05:32:00;3.90;;;2.63;;
13959;SDS011;7052;51.050;3.716;2022-12-07T05:34:27;4.30;;;2.87;;
13959;SDS011;7052;51.050;3.716;2022-12-07T05:36:59;3.83;;;2.70;;
13959;SDS011;7052;51.050;3.716;2022-12-07T05:39:34;6.27;;;3.37;;
13959;SDS011;7052;51.050;3.716;2022-12-07T05:42:12;5.77;;;3.53;;
13959;SDS011;7052;51.050;3.716;2022-12-07T05:44:38;7.67;;;3.83;;
13959;SDS011;7052;51.050;3.716;2022-12-07T05:47:14;7.50;;;4.03;;
13959;SDS011;7052;51.050;3.716;2022-12-07T05:49:44;6.90;;;3.30;;
13959;SDS011;7052;51.050;3.716;2022-12-07T05:52:16;6.00;;;3.63;;
13959;SDS011;7052;51.050;3.716;2022-12-07T05:54:49;8.07;;;3.90;;
13959;SDS011;7052;51.050;3.716;2022-12-07T05:57:18;6.50;;;3.60;;
13959;SDS011;7052;51.050;3.716;2022-12-07T05:59:46;6.70;;;3.57;;
13959;SDS011;7052;51.050;3.716;2022-12-07T06:04:45;5.43;;;3.50;;
13959;SDS011;7052;51.050;3.716;2022-12-07T06:07:14;8.27;;;3.83;;
13959;SDS011;7052;51.050;3.716;2022-12-07T06:09:43;5.80;;;3.40;;
13959;SDS011;7052;51.050;3.716;2022-12-07T06:12:13;7.50;;;3.40;;
13959;SDS011;7052;51.050;3.716;2022-12-07T06:14:57;4.47;;;3.00;;
13959;SDS011;7052;51.050;3.716;2022-12-07T06:17:27;5.83;;;3.70;;
13959;SDS011;7052;51.050;3.716;2022-12-07T06:19:54;8.93;;;4.00;;
13959;SDS011;7052;51.050;3.716;2022-12-07T06:22:24;7.83;;;4.07;;
13959;SDS011;7052;51.050;3.716;2022-12-07T06:24:53;9.13;;;4.07;;
13959;SDS011;7052;51.050;3.716;2022-12-07T06:27:34;5.63;;;3.73;;
13959;SDS011;7052;51.050;3.716;2022-12-07T06:30:16;5.00;;;3.57;;
13959;SDS011;7052;51.050;3.716;2022-12-07T06:36:10;7.23;;;3.60;;
13959;SDS011;7052;51.050;3.716;2022-12-07T06:38:53;5.37;;;3.73;;
13959;SDS011;7052;51.050;3.716;2022-12-07T06:49:39;5.73;;;3.70;;
13959;SDS011;7052;51.050;3.716;2022-12-07T06:52:07;8.40;;;3.90;;
13959;SDS011;7052;51.050;3.716;2022-12-07T06:54:54;9.13;;;3.90;;
13959;SDS011;7052;51.050;3.716;2022-12-07T06:57:44;7.30;;;4.10;;
13959;SDS011;7052;51.050;3.716;2022-12-07T07:04:06;5.80;;;3.77;;
13959;SDS011;7052;51.050;3.716;2022-12-07T07:07:01;8.37;;;3.73;;
13959;SDS011;7052;51.050;3.716;2022-12-07T07:09:38;8.57;;;4.30;;
13959;SDS011;7052;51.050;3.716;2022-12-07T07:12:08;11.47;;;4.17;;
13959;SDS011;7052;51.050;3.716;2022-12-07T07:15:25;9.40;;;4.13;;
13959;SDS011;7052;51.050;3.716;2022-12-07T07:18:09;7.50;;;4.07;;
13959;SDS011;7052;51.050;3.716;2022-12-07T07:20:44;9.27;;;4.00;;
13959;SDS011;7052;51.050;3.716;2022-12-07T07:26:16;12.50;;;4.53;;
13959;SDS011;7052;51.050;3.716;2022-12-07T07:28:53;6.23;;;3.30;;
13959;SDS011;7052;51.050;3.716;2022-12-07T07:31:31;10.10;;;4.13;;
13959;SDS011;7052;51.050;3.716;2022-12-07T07:34:02;9.13;;;3.60;;
13959;SDS011;7052;51.050;3.716;2022-12-07T07:36:41;8.13;;;3.90;;
13959;SDS011;7052;51.050;3.716;2022-12-07T07:39:12;8.57;;;3.70;;
13959;SDS011;7052;51.050;3.716;2022-12-07T07:41:40;8.17;;;3.10;;
13959;SDS011;7052;51.050;3.716;2022-12-07T07:44:12;6.80;;;4.00;;
13959;SDS011;7052;51.050;3.716;2022-12-07T07:46:42;18.43;;;10.53;;
13959;SDS011;7052;51.050;3.716;2022-12-07T07:49:23;12.73;;;3.60;;
13959;SDS011;7052;51.050;3.716;2022-12-07T07:51:52;9.23;;;3.70;;
13959;SDS011;7052;51.050;3.716;2022-12-07T07:54:27;6.67;;;3.27;;
13959;SDS011;7052;51.050;3.716;2022-12-07T07:57:14;6.83;;;3.23;;
13959;SDS011;7052;51.050;3.716;2022-12-07T07:59:53;7.97;;;3.20;;
13959;SDS011;7052;51.050;3.716;2022-12-07T08:02:22;13.53;;;3.60;;
13959;SDS011;7052;51.050;3.716;2022-12-07T08:04:56;26.90;;;4.43;;
13959;SDS011;7052;51.050;3.716;2022-12-07T08:07:23;12.37;;;3.43;;
13959;SDS011;7052;51.050;3.716;2022-12-07T08:10:08;5.40;;;3.33;;
13959;SDS011;7052;51.050;3.716;2022-12-07T08:12:37;7.90;;;3.10;;
13959;SDS011;7052;51.050;3.716;2022-12-07T08:15:27;7.07;;;3.57;;
13959;SDS011;7052;51.050;3.716;2022-12-07T08:18:06;7.23;;;3.60;;
13959;SDS011;7052;51.050;3.716;2022-12-07T08:20:42;11.93;;;4.47;;
13959;SDS011;7052;51.050;3.716;2022-12-07T08:23:14;21.10;;;5.27;;
13959;SDS011;7052;51.050;3.716;2022-12-07T08:28:33;9.80;;;4.10;;
13959;SDS011;7052;51.050;3.716;2022-12-07T08:31:06;11.57;;;4.27;;
13959;SDS011;7052;51.050;3.716;2022-12-07T08:33:35;7.10;;;4.07;;
13959;SDS011;7052;51.050;3.716;2022-12-07T08:36:02;8.80;;;3.80;;
13959;SDS011;7052;51.050;3.716;2022-12-07T08:38:33;8.10;;;3.30;;
13959;SDS011;7052;51.050;3.716;2022-12-07T08:41:02;8.77;;;3.40;;
13959;SDS011;7052;51.050;3.716;2022-12-07T08:43:31;11.40;;;3.60;;
13959;SDS011;7052;51.050;3.716;2022-12-07T08:46:00;5.50;;;3.43;;
13959;SDS011;7052;51.050;3.716;2022-12-07T08:48:34;10.10;;;3.37;;
13959;SDS011;7052;51.050;3.716;2022-12-07T08:51:05;11.93;;;4.37;;
13959;SDS011;7052;51.050;3.716;2022-12-07T08:58:51;11.17;;;4.20;;
13959;SDS011;7052;51.050;3.716;2022-12-07T09:01:22;8.30;;;3.87;;
13959;SDS011;7052;51.050;3.716;2022-12-07T09:03:54;12.33;;;4.03;;
13959;SDS011;7052;51.050;3.716;2022-12-07T09:06:37;16.90;;;4.60;;
13959;SDS011;7052;51.050;3.716;2022-12-07T09:09:27;11.07;;;4.03;;
13959;SDS011;7052;51.050;3.716;2022-12-07T09:12:17;13.90;;;3.80;;
13959;SDS011;7052;51.050;3.716;2022-12-07T09:14:50;27.47;;;5.17;;
13959;SDS011;7052;51.050;3.716;2022-12-07T09:17:21;8.37;;;3.40;;
13959;SDS011;7052;51.050;3.716;2022-12-07T09:19:56;11.47;;;4.60;;
13959;SDS011;7052;51.050;3.716;2022-12-07T09:22:29;7.90;;;4.00;;
13959;SDS011;7052;51.050;3.716;2022-12-07T09:25:01;11.07;;;3.80;;
13959;SDS011;7052;51.050;3.716;2022-12-07T09:27:36;9.23;;;4.27;;
13959;SDS011;7052;51.050;3.716;2022-12-07T09:30:46;10.53;;;3.47;;
13959;SDS011;7052;51.050;3.716;2022-12-07T09:33:14;9.93;;;3.27;;
13959;SDS011;7052;51.050;3.716;2022-12-07T09:35:44;5.27;;;2.93;;
13959;SDS011;7052;51.050;3.716;2022-12-07T09:38:16;5.20;;;2.63;;
13959;SDS011;7052;51.050;3.716;2022-12-07T09:41:03;5.03;;;2.20;;
13959;SDS011;7052;51.050;3.716;2022-12-07T09:43:32;6.17;;;2.60;;
13959;SDS011;7052;51.050;3.716;2022-12-07T09:46:16;5.10;;;2.27;;
13959;SDS011;7052;51.050;3.716;2022-12-07T09:49:00;9.13;;;3.50;;
13959;SDS011;7052;51.050;3.716;2022-12-07T09:51:37;16.33;;;3.73;;
13959;SDS011;7052;51.050;3.716;2022-12-07T09:54:07;7.27;;;3.50;;
13959;SDS011;7052;51.050;3.716;2022-12-07T09:57:00;5.87;;;3.00;;
13959;SDS011;7052;51.050;3.716;2022-12-07T09:59:42;5.27;;;3.57;;
13959;SDS011;7052;51.050;3.716;2022-12-07T10:05:54;8.23;;;3.30;;
13959;SDS011;7052;51.050;3.716;2022-12-07T10:08:58;7.27;;;3.90;;
13959;SDS011;7052;51.050;3.716;2022-12-07T10:11:59;5.37;;;2.90;;
13959;SDS011;7052;51.050;3.716;2022-12-07T10:14:52;13.27;;;3.80;;
13959;SDS011;7052;51.050;3.716;2022-12-07T10:17:38;12.23;;;4.20;;
13959;SDS011;7052;51.050;3.716;2022-12-07T10:20:27;8.70;;;2.90;;
13959;SDS011;7052;51.050;3.716;2022-12-07T10:23:04;6.87;;;3.10;;
13959;SDS011;7052;51.050;3.716;2022-12-07T10:25:45;7.40;;;3.13;;
13959;SDS011;7052;51.050;3.716;2022-12-07T10:28:20;8.50;;;3.53;;
13959;SDS011;7052;51.050;3.716;2022-12-07T10:31:02;11.77;;;3.70;;
13959;SDS011;7052;51.050;3.716;2022-12-07T10:33:48;5.60;;;3.50;;
13959;SDS011;7052;51.050;3.716;2022-12-07T10:36:21;5.47;;;3.13;;
13959;SDS011;7052;51.050;3.716;2022-12-07T10:42:27;11.10;;;4.73;;
13959;SDS011;7052;51.050;3.716;2022-12-07T10:45:09;5.43;;;3.03;;
13959;SDS011;7052;51.050;3.716;2022-12-07T10:48:06;8.10;;;3.33;;
13959;SDS011;7052;51.050;3.716;2022-12-07T10:50:49;5.30;;;3.63;;
13959;SDS011;7052;51.050;3.716;2022-12-07T10:53:54;7.13;;;3.30;;
13959;SDS011;7052;51.050;3.716;2022-12-07T10:56:53;7.27;;;3.43;;
13959;SDS011;7052;51.050;3.716;2022-12-07T10:59:54;12.80;;;3.43;;
13959;SDS011;7052;51.050;3.716;2022-12-07T11:02:42;7.23;;;4.00;;
13959;SDS011;7052;51.050;3.716;2022-12-07T11:05:34;8.17;;;3.37;;
13959;SDS011;7052;51.050;3.716;2022-12-07T11:08:21;11.37;;;3.17;;
13959;SDS011;7052;51.050;3.716;2022-12-07T11:11:06;6.80;;;2.70;;
13959;SDS011;7052;51.050;3.716;2022-12-07T11:13:42;7.00;;;2.80;;
13959;SDS011;7052;51.050;3.716;2022-12-07T11:16:24;8.10;;;3.30;;
13959;SDS011;7052;51.050;3.716;2022-12-07T11:19:06;6.30;;;3.20;;
13959;SDS011;7052;51.050;3.716;2022-12-07T11:24:27;7.23;;;4.43;;
13959;SDS011;7052;51.050;3.716;2022-12-07T11:27:07;6.03;;;3.60;;
13959;SDS011;7052;51.050;3.716;2022-12-07T11:32:58;9.43;;;3.37;;
13959;SDS011;7052;51.050;3.716;2022-12-07T11:35:51;4.27;;;2.60;;
13959;SDS011;7052;51.050;3.716;2022-12-07T11:41:36;8.00;;;3.33;;
13959;SDS011;7052;51.050;3.716;2022-12-07T11:44:32;5.77;;;3.00;;
13959;SDS011;7052;51.050;3.716;2022-12-07T11:47:07;73.67;;;12.77;;
13959;SDS011;7052;51.050;3.716;2022-12-07T11:49:40;13.43;;;4.10;;
13959;SDS011;7052;51.050;3.716;2022-12-07T11:52:15;9.97;;;3.70;;
13959;SDS011;7052;51.050;3.716;2022-12-07T11:55:07;3.73;;;2.77;;
13959;SDS011;7052;51.050;3.716;2022-12-07T11:57:45;4.70;;;2.73;;
13959;SDS011;7052;51.050;3.716;2022-12-07T12:00:39;5.03;;;2.50;;
13959;SDS011;7052;51.050;3.716;2022-12-07T12:06:05;6.57;;;2.40;;
13959;SDS011;7052;51.050;3.716;2022-12-07T12:08:36;11.53;;;3.83;;
13959;SDS011;7052;51.050;3.716;2022-12-07T12:11:37;13.63;;;3.93;;
13959;SDS011;7052;51.050;3.716;2022-12-07T12:14:32;5.87;;;2.87;;
13959;SDS011;7052;51.050;3.716;2022-12-07T12:17:29;12.97;;;3.60;;
13959;SDS011;7052;51.050;3.716;2022-12-07T12:20:23;9.60;;;3.50;;
13959;SDS011;7052;51.050;3.716;2022-12-07T12:22:58;4.37;;;2.60;;
13959;SDS011;7052;51.050;3.716;2022-12-07T12:25:34;9.23;;;3.07;;
13959;SDS011;7052;51.050;3.716;2022-12-07T12:28:22;3.67;;;2.30;;
13959;SDS011;7052;51.050;3.716;2022-12-07T12:31:10;3.67;;;2.30;;
13959;SDS011;7052;51.050;3.716;2022-12-07T12:33:57;3.37;;;2.37;;
13959;SDS011;7052;51.050;3.716;2022-12-07T12:59:30;5.67;;;2.80;;
13959;SDS011;7052;51.050;3.716;2022-12-07T13:02:08;6.47;;;2.90;;
13959;SDS011;7052;51.050;3.716;2022-12-07T13:04:56;4.50;;;2.20;;
13959;SDS011;7052;51.050;3.716;2022-12-07T13:13:34;15.60;;;2.80;;
13959;SDS011;7052;51.050;3.716;2022-12-07T13:22:40;5.67;;;2.50;;
13959;SDS011;7052;51.050;3.716;2022-12-07T13:25:36;8.27;;;3.43;;
13959;SDS011;7052;51.050;3.716;2022-12-07T13:28:32;6.43;;;2.90;;
13959;SDS011;7052;51.050;3.716;2022-12-07T13:31:29;6.17;;;3.70;;
13959;SDS011;7052;51.050;3.716;2022-12-07T13:34:37;7.33;;;2.83;;
13959;SDS011;7052;51.050;3.716;2022-12-07T13:37:12;4.03;;;2.30;;
13959;SDS011;7052;51.050;3.716;2022-12-07T13:40:15;6.13;;;2.77;;
13959;SDS011;7052;51.050;3.716;2022-12-07T13:42:58;6.90;;;3.03;;
13959;SDS011;7052;51.050;3.716;2022-12-07T13:45:55;7.37;;;2.87;;
13959;SDS011;7052;51.050;3.716;2022-12-07T13:48:44;7.63;;;4.57;;
13959;SDS011;7052;51.050;3.716;2022-12-07T13:51:35;9.37;;;3.47;;
13959;SDS011;7052;51.050;3.716;2022-12-07T13:54:09;7.53;;;4.00;;
13959;SDS011;7052;51.050;3.716;2022-12-07T13:56:51;4.63;;;2.83;;
13959;SDS011;7052;51.050;3.716;2022-12-07T13:59:40;9.50;;;5.13;;
13959;SDS011;7052;51.050;3.716;2022-12-07T14:02:33;7.67;;;4.10;;
13959;SDS011;7052;51.050;3.716;2022-12-07T14:05:35;7.60;;;2.80;;
13959;SDS011;7052;51.050;3.716;2022-12-07T14:11:30;3.77;;;2.00;;
13959;SDS011;7052;51.050;3.716;2022-12-07T14:14:10;3.70;;;1.90;;
13959;SDS011;7052;51.050;3.716;2022-12-07T14:17:15;4.73;;;2.00;;
13959;SDS011;7052;51.050;3.716;2022-12-07T14:20:01;2.23;;;1.53;;
13959;SDS011;7052;51.050;3.716;2022-12-07T14:23:21;4.57;;;1.67;;
13959;SDS011;7052;51.050;3.716;2022-12-07T14:25:53;6.93;;;2.13;;
13959;SDS011;7052;51.050;3.716;2022-12-07T14:28:35;3.33;;;1.70;;
13959;SDS011;7052;51.050;3.716;2022-12-07T14:31:08;2.27;;;1.60;;
13959;SDS011;7052;51.050;3.716;2022-12-07T14:33:40;5.40;;;1.80;;
13959;SDS011;7052;51.050;3.716;2022-12-07T14:36:08;4.63;;;2.07;;
13959;SDS011;7052;51.050;3.716;2022-12-07T14:38:43;7.93;;;2.40;;
13959;SDS011;7052;51.050;3.716;2022-12-07T14:41:12;5.73;;;1.73;;
13959;SDS011;7052;51.050;3.716;2022-12-07T14:44:11;5.00;;;1.70;;
13959;SDS011;7052;51.050;3.716;2022-12-07T14:46:38;3.60;;;1.80;;
13959;SDS011;7052;51.050;3.716;2022-12-07T14:49:05;3.17;;;1.60;;
13959;SDS011;7052;51.050;3.716;2022-12-07T14:51:36;5.03;;;1.90;;
13959;SDS011;7052;51.050;3.716;2022-12-07T14:54:25;3.97;;;1.50;;
13959;SDS011;7052;51.050;3.716;2022-12-07T14:57:12;5.47;;;2.03;;
13959;SDS011;7052;51.050;3.716;2022-12-07T15:10:01;3.30;;;1.80;;
13959;SDS011;7052;51.050;3.716;2022-12-07T15:12:55;4.40;;;2.00;;
13959;SDS011;7052;51.050;3.716;2022-12-07T15:15:58;7.10;;;2.33;;
13959;SDS011;7052;51.050;3.716;2022-12-07T15:18:50;11.47;;;5.93;;
13959;SDS011;7052;51.050;3.716;2022-12-07T15:21:17;4.37;;;2.00;;
13959;SDS011;7052;51.050;3.716;2022-12-07T15:23:45;3.87;;;2.30;;
13959;SDS011;7052;51.050;3.716;2022-12-07T15:26:23;2.67;;;1.97;;
13959;SDS011;7052;51.050;3.716;2022-12-07T15:28:54;5.17;;;2.10;;
13959;SDS011;7052;51.050;3.716;2022-12-07T15:31:21;3.63;;;2.00;;
13959;SDS011;7052;51.050;3.716;2022-12-07T15:33:59;5.03;;;2.40;;
13959;SDS011;7052;51.050;3.716;2022-12-07T15:36:37;3.93;;;2.63;;
13959;SDS011;7052;51.050;3.716;2022-12-07T15:41:55;5.17;;;2.07;;
13959;SDS011;7052;51.050;3.716;2022-12-07T15:44:32;3.07;;;2.30;;
13959;SDS011;7052;51.050;3.716;2022-12-07T15:47:16;3.10;;;2.17;;
13959;SDS011;7052;51.050;3.716;2022-12-07T15:50:18;6.97;;;2.57;;
13959;SDS011;7052;51.050;3.716;2022-12-07T15:52:45;5.07;;;2.90;;
13959;SDS011;7052;51.050;3.716;2022-12-07T15:55:15;4.97;;;2.50;;
13959;SDS011;7052;51.050;3.716;2022-12-07T15:58:16;6.73;;;2.70;;
13959;SDS011;7052;51.050;3.716;2022-12-07T16:00:43;6.43;;;2.47;;
13959;SDS011;7052;51.050;3.716;2022-12-07T16:03:30;4.77;;;2.50;;
13959;SDS011;7052;51.050;3.716;2022-12-07T16:06:01;6.80;;;3.00;;
13959;SDS011;7052;51.050;3.716;2022-12-07T16:08:34;6.17;;;3.30;;
13959;SDS011;7052;51.050;3.716;2022-12-07T16:11:08;7.97;;;2.90;;
13959;SDS011;7052;51.050;3.716;2022-12-07T16:13:37;6.73;;;3.60;;
13959;SDS011;7052;51.050;3.716;2022-12-07T16:16:13;7.13;;;4.07;;
13959;SDS011;7052;51.050;3.716;2022-12-07T16:18:44;7.30;;;3.30;;
13959;SDS011;7052;51.050;3.716;2022-12-07T16:21:27;5.80;;;4.10;;
13959;SDS011;7052;51.050;3.716;2022-12-07T16:24:00;8.90;;;6.93;;
13959;SDS011;7052;51.050;3.716;2022-12-07T16:26:28;13.40;;;6.80;;
13959;SDS011;7052;51.050;3.716;2022-12-07T16:32:08;7.40;;;5.80;;
13959;SDS011;7052;51.050;3.716;2022-12-07T16:34:37;9.30;;;4.57;;
13959;SDS011;7052;51.050;3.716;2022-12-07T16:37:07;7.17;;;5.23;;
13959;SDS011;7052;51.050;3.716;2022-12-07T16:39:39;8.50;;;4.40;;
13959;SDS011;7052;51.050;3.716;2022-12-07T16:42:18;7.40;;;4.53;;
13959;SDS011;7052;51.050;3.716;2022-12-07T16:45:23;6.60;;;4.90;;
13959;SDS011;7052;51.050;3.716;2022-12-07T16:48:06;6.83;;;4.47;;
13959;SDS011;7052;51.050;3.716;2022-12-07T16:50:58;6.83;;;4.53;;
13959;SDS011;7052;51.050;3.716;2022-12-07T16:53:51;10.03;;;4.57;;
13959;SDS011;7052;51.050;3.716;2022-12-07T16:56:48;6.77;;;4.23;;
13959;SDS011;7052;51.050;3.716;2022-12-07T16:59:45;6.47;;;4.63;;
13959;SDS011;7052;51.050;3.716;2022-12-07T17:02:40;13.00;;;6.80;;
13959;SDS011;7052;51.050;3.716;2022-12-07T17:05:21;12.93;;;7.53;;
13959;SDS011;7052;51.050;3.716;2022-12-07T17:07:54;7.50;;;4.97;;
13959;SDS011;7052;51.050;3.716;2022-12-07T17:10:40;6.00;;;4.97;;
13959;SDS011;7052;51.050;3.716;2022-12-07T17:13:19;8.73;;;5.37;;
13959;SDS011;7052;51.050;3.716;2022-12-07T17:16:05;9.20;;;5.40;;
13959;SDS011;7052;51.050;3.716;2022-12-07T17:21:41;9.40;;;5.60;;
13959;SDS011;7052;51.050;3.716;2022-12-07T17:24:24;7.10;;;5.47;;
13959;SDS011;7052;51.050;3.716;2022-12-07T17:27:02;18.47;;;10.33;;
13959;SDS011;7052;51.050;3.716;2022-12-07T17:29:40;10.40;;;6.53;;
13959;SDS011;7052;51.050;3.716;2022-12-07T17:32:21;14.33;;;6.33;;
13959;SDS011;7052;51.050;3.716;2022-12-07T17:38:14;9.03;;;6.07;;
13959;SDS011;7052;51.050;3.716;2022-12-07T17:40:48;8.20;;;7.10;;
13959;SDS011;7052;51.050;3.716;2022-12-07T17:43:19;13.50;;;9.07;;
13959;SDS011;7052;51.050;3.716;2022-12-07T17:45:49;12.10;;;7.13;;
13959;SDS011;7052;51.050;3.716;2022-12-07T17:48:24;10.73;;;6.83;;
13959;SDS011;7052;51.050;3.716;2022-12-07T17:51:14;9.83;;;6.83;;
13959;SDS011;7052;51.050;3.716;2022-12-07T17:54:03;9.57;;;6.30;;
13959;SDS011;7052;51.050;3.716;2022-12-07T17:56:32;11.40;;;5.77;;
13959;SDS011;7052;51.050;3.716;2022-12-07T17:59:09;15.57;;;9.10;;
13959;SDS011;7052;51.050;3.716;2022-12-07T18:01:37;12.43;;;7.40;;
13959;SDS011;7052;51.050;3.716;2022-12-07T18:04:06;9.50;;;6.03;;
13959;SDS011;7052;51.050;3.716;2022-12-07T18:06:52;7.73;;;5.40;;
13959;SDS011;7052;51.050;3.716;2022-12-07T18:09:23;7.97;;;6.60;;
13959;SDS011;7052;51.050;3.716;2022-12-07T18:11:51;12.50;;;7.60;;
13959;SDS011;7052;51.050;3.716;2022-12-07T18:14:26;10.77;;;6.80;;
13959;SDS011;7052;51.050;3.716;2022-12-07T18:17:04;10.10;;;6.13;;
13959;SDS011;7052;51.050;3.716;2022-12-07T18:19:35;11.27;;;6.30;;
13959;SDS011;7052;51.050;3.716;2022-12-07T18:22:33;8.87;;;5.93;;
13959;SDS011;7052;51.050;3.716;2022-12-07T18:25:22;9.65;;;6.90;;
13959;SDS011;7052;51.050;3.716;2022-12-07T18:27:52;10.23;;;5.83;;
13959;SDS011;7052;51.050;3.716;2022-12-07T18:30:55;9.97;;;5.50;;
13959;SDS011;7052;51.050;3.716;2022-12-07T18:34:25;8.27;;;5.70;;
13959;SDS011;7052;51.050;3.716;2022-12-07T18:37:16;7.13;;;5.13;;
13959;SDS011;7052;51.050;3.716;2022-12-07T18:40:05;8.37;;;4.90;;
13959;SDS011;7052;51.050;3.716;2022-12-07T18:52:24;6.43;;;5.03;;
13959;SDS011;7052;51.050;3.716;2022-12-07T18:54:54;8.03;;;5.10;;
13959;SDS011;7052;51.050;3.716;2022-12-07T18:57:45;6.43;;;5.00;;
13959;SDS011;7052;51.050;3.716;2022-12-07T19:00:27;5.80;;;4.70;;
13959;SDS011;7052;51.050;3.716;2022-12-07T19:02:58;7.00;;;4.67;;
13959;SDS011;7052;51.050;3.716;2022-12-07T19:05:36;6.43;;;4.50;;